Time;durP1;ratioP1;P1;durP2;ratioP2;P2;SDS_P1;SDS_P2;PMS_P1;PMS_P2;Temp;Humidity;BMP_temperature;BMP_pressure;BME280_temperature;BME280_humidity;BME280_pressure;Samples;Min_cycle;Max_cycle;Signal;HPM_P1;HPM_P2
2021/12/15 00:02:22;;;;;;;46.07;22.50;;;7.70;99.90;;;;;;5093112;28;20201;-67
2021/12/15 00:04:51;;;;;;;49.10;22.83;;;7.70;99.90;;;;;;5093511;28;20266;-67
2021/12/15 00:07:19;;;;;;;41.77;22.43;;;7.70;99.90;;;;;;5092136;28;20238;-67
2021/12/15 00:09:45;;;;;;;45.57;21.57;;;7.80;99.90;;;;;;5095541;28;20205;-67
2021/12/15 00:12:13;;;;;;;46.03;22.57;;;7.70;99.90;;;;;;5096711;28;20214;-67
2021/12/15 00:14:40;;;;;;;42.63;22.27;;;7.70;99.90;;;;;;5096597;28;20684;-67
2021/12/15 00:17:06;;;;;;;43.87;23.00;;;7.70;99.90;;;;;;5096509;28;20177;-67
2021/12/15 00:19:32;;;;;;;45.77;22.03;;;7.70;99.90;;;;;;5096235;28;20227;-67
2021/12/15 00:21:59;;;;;;;45.83;22.37;;;7.80;99.90;;;;;;5096748;28;20180;-67
2021/12/15 00:24:25;;;;;;;49.33;24.07;;;7.70;99.90;;;;;;5096205;28;20590;-67
2021/12/15 00:26:53;;;;;;;47.53;23.03;;;7.80;99.90;;;;;;5094817;28;20185;-67
2021/12/15 00:29:19;;;;;;;52.47;24.97;;;7.80;99.90;;;;;;5096088;28;20180;-67
2021/12/15 00:31:46;;;;;;;48.60;24.53;;;7.80;99.90;;;;;;5096033;28;20178;-67
2021/12/15 00:34:13;;;;;;;47.83;22.53;;;7.70;99.90;;;;;;5096185;28;20197;-67
2021/12/15 00:36:43;;;;;;;48.93;25.67;;;7.70;99.90;;;;;;5096195;28;20177;-67
2021/12/15 00:39:11;;;;;;;51.27;24.00;;;7.70;99.90;;;;;;5096239;28;20184;-67
2021/12/15 00:41:38;;;;;;;54.63;25.63;;;7.80;99.90;;;;;;5096092;28;20173;-67
2021/12/15 00:44:05;;;;;;;47.63;25.13;;;7.70;99.90;;;;;;5095708;28;20224;-67
2021/12/15 00:46:31;;;;;;;59.67;25.53;;;7.80;99.90;;;;;;5096206;28;20173;-67
2021/12/15 00:48:58;;;;;;;55.83;25.70;;;7.80;99.90;;;;;;5094653;28;20241;-67
2021/12/15 00:51:24;;;;;;;45.87;23.57;;;7.80;99.90;;;;;;5094577;28;20189;-67
2021/12/15 00:53:51;;;;;;;50.93;24.77;;;7.80;99.90;;;;;;5095699;28;20219;-67
2021/12/15 00:56:17;;;;;;;40.53;21.33;;;7.70;99.90;;;;;;5095723;28;20226;-67
2021/12/15 00:58:43;;;;;;;50.07;23.20;;;7.80;99.90;;;;;;5095495;28;20169;-67
2021/12/15 01:01:09;;;;;;;49.03;24.83;;;7.80;99.90;;;;;;5095766;28;20636;-67
2021/12/15 01:03:35;;;;;;;54.20;22.83;;;7.80;99.90;;;;;;5094008;28;20204;-67
2021/12/15 01:06:09;;;;;;;54.37;24.40;;;7.80;99.90;;;;;;5095422;28;20543;-67
2021/12/15 01:08:41;;;;;;;46.17;23.30;;;7.80;99.90;;;;;;5094447;28;20173;-67
2021/12/15 01:11:17;;;;;;;49.87;24.03;;;7.80;99.90;;;;;;5096081;28;20675;-67
2021/12/15 01:22:10;;;;;;;42.73;22.30;;;7.70;99.90;;;;;;5095320;28;20163;-66
2021/12/15 01:24:36;;;;;;;54.07;23.80;;;7.70;99.90;;;;;;5094902;28;20701;-66
2021/12/15 01:27:02;;;;;;;44.30;22.37;;;7.70;99.90;;;;;;5095061;28;20268;-67
2021/12/15 01:29:28;;;;;;;48.77;22.93;;;7.70;99.90;;;;;;5095464;28;20181;-67
2021/12/15 01:31:54;;;;;;;48.13;23.63;;;7.70;99.90;;;;;;5094874;28;20177;-66
2021/12/15 01:34:20;;;;;;;45.80;24.20;;;7.70;99.90;;;;;;5093431;28;20212;-67
2021/12/15 01:36:46;;;;;;;45.77;23.63;;;7.70;99.90;;;;;;5094860;28;20239;-67
2021/12/15 01:39:12;;;;;;;51.73;24.77;;;7.60;99.90;;;;;;5094670;28;20179;-67
2021/12/15 01:41:38;;;;;;;50.03;25.37;;;7.60;99.90;;;;;;5094688;28;20177;-67
2021/12/15 01:46:59;;;;;;;48.20;24.23;;;7.60;99.90;;;;;;5094890;28;20165;-67
2021/12/15 01:49:38;;;;;;;49.63;22.53;;;7.60;99.90;;;;;;5094599;28;20207;-67
2021/12/15 01:52:15;;;;;;;51.97;23.20;;;7.60;99.90;;;;;;5094447;28;20193;-67
2021/12/15 01:54:43;;;;;;;50.77;23.43;;;7.60;99.90;;;;;;5094280;28;20201;-67
2021/12/15 01:57:12;;;;;;;47.37;23.10;;;7.60;99.90;;;;;;5094281;28;20203;-67
2021/12/15 01:59:38;;;;;;;51.53;24.00;;;7.60;99.90;;;;;;5094399;28;20177;-67
2021/12/15 02:02:06;;;;;;;51.10;23.77;;;7.50;99.90;;;;;;5093035;28;20639;-66
2021/12/15 02:04:32;;;;;;;48.43;22.60;;;7.50;99.90;;;;;;5092889;28;20203;-67
2021/12/15 02:06:59;;;;;;;49.20;22.87;;;7.50;99.90;;;;;;5094148;28;20177;-67
2021/12/15 02:12:01;;;;;;;42.97;22.90;;;7.50;99.90;;;;;;5094121;28;20211;-67
2021/12/15 02:14:30;;;;;;;40.77;20.03;;;7.50;99.90;;;;;;5094307;28;20568;-67
2021/12/15 02:16:57;;;;;;;45.07;23.27;;;7.50;99.90;;;;;;5094576;28;20534;-67
2021/12/15 02:19:23;;;;;;;42.27;20.50;;;7.50;99.90;;;;;;5092771;28;20188;-67
2021/12/15 02:21:48;;;;;;;47.27;21.10;;;7.50;99.90;;;;;;5094521;28;20173;-67
2021/12/15 02:24:14;;;;;;;45.20;21.50;;;7.50;99.90;;;;;;5093822;28;20198;-67
2021/12/15 02:26:45;;;;;;;38.83;20.33;;;7.50;99.90;;;;;;5094517;28;20177;-67
2021/12/15 02:29:16;;;;;;;37.83;20.57;;;7.50;99.90;;;;;;5094690;28;20248;-67
2021/12/15 02:37:36;;;;;;;37.63;20.20;;;7.50;99.90;;;;;;5094033;28;20620;-67
2021/12/15 02:39:38;;;;;;;42.13;21.20;;;7.60;99.90;;;;;;5089885;28;20273;-67
2021/12/15 02:42:05;;;;;;;43.03;21.23;;;7.50;99.90;;;;;;5094057;28;20173;-67
2021/12/15 02:44:31;;;;;;;44.77;21.67;;;7.60;99.90;;;;;;5092215;28;20204;-67
2021/12/15 02:46:57;;;;;;;44.20;22.03;;;7.60;99.90;;;;;;5093440;28;20252;-67
2021/12/15 02:49:28;;;;;;;42.40;20.87;;;7.60;99.90;;;;;;5093518;28;20177;-67
2021/12/15 02:51:57;;;;;;;39.13;21.87;;;7.70;99.90;;;;;;5092086;28;20201;-67
2021/12/15 02:54:24;;;;;;;44.90;22.53;;;7.60;99.90;;;;;;5093281;28;20638;-67
2021/12/15 02:56:53;;;;;;;38.80;20.37;;;7.70;99.90;;;;;;5093305;28;20230;-67
2021/12/15 02:59:31;;;;;;;44.87;22.40;;;7.70;99.90;;;;;;5092114;28;20260;-67
2021/12/15 03:02:09;;;;;;;44.43;22.73;;;7.70;99.90;;;;;;5093714;28;20157;-67
2021/12/15 03:04:49;;;;;;;38.63;20.33;;;7.70;99.90;;;;;;5093303;28;20668;-67
2021/12/15 03:07:30;;;;;;;44.37;22.77;;;7.70;99.90;;;;;;5093861;28;20215;-67
2021/12/15 03:15:33;;;;;;;40.07;20.93;;;7.70;99.90;;;;;;5093536;28;20310;-67
2021/12/15 03:18:12;;;;;;;44.67;21.17;;;7.70;99.90;;;;;;5091933;28;20173;-67
2021/12/15 03:20:42;;;;;;;36.60;21.17;;;7.70;99.90;;;;;;5093198;28;20168;-67
2021/12/15 03:23:11;;;;;;;43.00;21.37;;;7.70;99.90;;;;;;5091802;28;20191;-67
2021/12/15 03:25:37;;;;;;;45.33;22.63;;;7.70;99.90;;;;;;5093158;28;20211;-67
2021/12/15 03:33:58;;;;;;;38.40;20.77;;;7.70;99.90;;;;;;5093389;28;20208;-67
2021/12/15 03:36:40;;;;;;;49.33;22.67;;;7.70;99.90;;;;;;5092901;28;20162;-67
2021/12/15 03:39:09;;;;;;;41.67;22.27;;;7.70;99.90;;;;;;5093044;28;20223;-67
2021/12/15 03:41:35;;;;;;;38.17;20.33;;;7.70;99.90;;;;;;5092827;28;20227;-67
2021/12/15 03:44:03;;;;;;;40.50;21.77;;;7.70;99.90;;;;;;5096527;28;20201;-67
2021/12/15 03:46:30;;;;;;;39.33;22.13;;;7.70;99.90;;;;;;5095779;28;20642;-67
2021/12/15 03:48:56;;;;;;;41.10;21.97;;;7.70;99.90;;;;;;5096987;28;20177;-66
2021/12/15 03:51:22;;;;;;;47.77;23.77;;;7.70;99.90;;;;;;5096707;28;20181;-67
2021/12/15 03:53:48;;;;;;;41.60;21.83;;;7.70;99.90;;;;;;5096662;28;20197;-67
2021/12/15 03:56:15;;;;;;;40.27;22.60;;;7.80;99.90;;;;;;5096784;28;20176;-67
2021/12/15 03:58:42;;;;;;;44.57;24.43;;;7.80;99.90;;;;;;5096155;28;20181;-66
2021/12/15 04:01:14;;;;;;;41.60;22.47;;;7.80;99.90;;;;;;5096162;28;20177;-67
2021/12/15 04:03:42;;;;;;;39.00;22.37;;;7.80;99.90;;;;;;5097610;28;20197;-66
2021/12/15 04:06:16;;;;;;;43.90;22.63;;;7.90;99.90;;;;;;5097080;28;20283;-67
2021/12/15 04:08:42;;;;;;;43.17;22.73;;;7.90;99.90;;;;;;5095336;28;20547;-67
2021/12/15 04:11:11;;;;;;;41.20;22.50;;;7.90;99.90;;;;;;5096980;28;20176;-67
2021/12/15 04:13:38;;;;;;;35.27;20.83;;;7.90;99.90;;;;;;5096267;28;20204;-66
2021/12/15 04:16:08;;;;;;;35.97;20.83;;;7.90;99.90;;;;;;5096453;28;20173;-67
2021/12/15 04:18:36;;;;;;;39.27;21.63;;;7.90;99.90;;;;;;5096460;28;20552;-66
2021/12/15 04:21:04;;;;;;;41.47;22.10;;;7.90;99.90;;;;;;5096463;28;20637;-67
2021/12/15 04:23:31;;;;;;;40.60;22.07;;;7.90;99.90;;;;;;5096224;28;20197;-67
2021/12/15 04:25:59;;;;;;;40.23;22.57;;;7.90;99.90;;;;;;5096148;28;20169;-67
2021/12/15 04:28:34;;;;;;;43.13;22.17;;;7.90;99.90;;;;;;5094789;28;20268;-67
2021/12/15 04:31:06;;;;;;;44.87;22.47;;;7.90;99.90;;;;;;5096123;28;20527;-67
2021/12/15 04:33:40;;;;;;;42.00;22.27;;;7.90;99.90;;;;;;5094666;28;20255;-66
2021/12/15 04:36:11;;;;;;;41.70;22.27;;;7.80;99.90;;;;;;5096581;28;20157;-67
2021/12/15 04:38:39;;;;;;;39.10;22.30;;;7.90;99.90;;;;;;5096224;28;20613;-67
2021/12/15 04:41:08;;;;;;;44.23;22.63;;;7.90;99.90;;;;;;5095977;28;20201;-67
2021/12/15 04:43:39;;;;;;;42.83;23.47;;;7.90;99.90;;;;;;5094441;28;20201;-67
2021/12/15 04:46:07;;;;;;;41.27;22.77;;;7.90;99.90;;;;;;5095875;28;20158;-67
2021/12/15 04:48:33;;;;;;;38.70;21.13;;;7.90;99.90;;;;;;5096296;28;20180;-66
2021/12/15 04:50:59;;;;;;;42.20;22.27;;;7.90;99.90;;;;;;5095694;28;20703;-66
2021/12/15 04:53:25;;;;;;;39.00;22.07;;;7.90;99.90;;;;;;5095448;28;20236;-67
2021/12/15 04:55:51;;;;;;;39.17;21.47;;;7.90;99.90;;;;;;5095091;28;20236;-66
2021/12/15 04:58:17;;;;;;;35.70;20.43;;;7.90;99.90;;;;;;5095661;28;20517;-66
2021/12/15 05:00:52;;;;;;;38.73;20.87;;;7.90;99.90;;;;;;5095662;28;20275;-66
2021/12/15 05:03:18;;;;;;;41.17;22.13;;;7.90;99.90;;;;;;5094252;28;20204;-66
2021/12/15 05:05:44;;;;;;;41.77;22.43;;;7.90;99.90;;;;;;5094195;28;20199;-66
2021/12/15 05:08:11;;;;;;;38.13;21.00;;;7.90;99.90;;;;;;5095411;28;20181;-67
2021/12/15 05:10:38;;;;;;;36.90;21.23;;;7.90;99.90;;;;;;5095316;28;20184;-66
2021/12/15 05:13:06;;;;;;;35.33;19.77;;;7.90;99.90;;;;;;5093945;28;20181;-66
2021/12/15 05:15:33;;;;;;;35.83;19.83;;;7.80;99.90;;;;;;5093778;28;20304;-66
2021/12/15 05:17:59;;;;;;;39.43;21.30;;;7.90;99.90;;;;;;5095110;28;20188;-66
2021/12/15 05:20:25;;;;;;;32.73;18.53;;;7.90;99.90;;;;;;5095109;28;20177;-66
2021/12/15 05:22:52;;;;;;;38.23;21.10;;;7.90;99.90;;;;;;5095143;28;20170;-66
2021/12/15 05:25:18;;;;;;;32.47;19.33;;;7.90;99.90;;;;;;5093784;28;20197;-66
2021/12/15 05:27:45;;;;;;;37.07;19.80;;;7.90;99.90;;;;;;5093771;28;20203;-67
2021/12/15 05:30:14;;;;;;;35.57;19.93;;;7.80;99.90;;;;;;5093640;28;20222;-66
2021/12/15 05:32:40;;;;;;;38.00;20.00;;;7.80;99.90;;;;;;5095255;28;20181;-66
2021/12/15 05:35:09;;;;;;;36.27;19.03;;;7.80;99.90;;;;;;5095293;28;20233;-66
2021/12/15 05:37:37;;;;;;;34.03;17.97;;;7.80;99.90;;;;;;5095283;28;20557;-67
2021/12/15 05:40:05;;;;;;;35.47;19.00;;;7.80;99.90;;;;;;5093815;28;20178;-66
2021/12/15 05:42:31;;;;;;;36.67;19.83;;;7.80;99.90;;;;;;5095109;28;20178;-66
2021/12/15 05:44:57;;;;;;;32.83;17.67;;;7.80;99.90;;;;;;5094926;28;20197;-66
2021/12/15 05:47:25;;;;;;;29.47;18.93;;;7.80;99.90;;;;;;5095076;28;20188;-66
2021/12/15 05:49:52;;;;;;;31.33;18.33;;;7.80;99.90;;;;;;5094983;28;20270;-66
2021/12/15 05:52:19;;;;;;;37.17;19.93;;;7.80;99.90;;;;;;5094806;28;20691;-66
2021/12/15 05:54:46;;;;;;;34.13;19.23;;;7.80;99.90;;;;;;5094846;28;20209;-66
2021/12/15 05:57:12;;;;;;;35.43;19.37;;;7.80;99.90;;;;;;5094802;28;20173;-66
2021/12/15 05:59:38;;;;;;;38.63;20.20;;;7.80;99.90;;;;;;5093408;28;20173;-66
2021/12/15 06:02:06;;;;;;;36.03;18.80;;;7.80;99.90;;;;;;5094948;28;20180;-67
2021/12/15 06:04:33;;;;;;;32.83;18.90;;;7.90;99.90;;;;;;5094738;28;20668;-66
2021/12/15 06:06:59;;;;;;;33.13;19.50;;;7.90;99.90;;;;;;5094927;28;20161;-66
2021/12/15 06:09:25;;;;;;;31.17;19.00;;;7.90;99.90;;;;;;5094707;28;20181;-66
2021/12/15 06:11:53;;;;;;;33.83;19.27;;;7.90;99.90;;;;;;5094538;28;20197;-66
2021/12/15 06:14:24;;;;;;;31.40;18.40;;;7.90;99.90;;;;;;5094566;28;20197;-66
2021/12/15 06:16:56;;;;;;;31.80;17.00;;;7.90;99.90;;;;;;5095283;28;20163;-66
2021/12/15 06:19:22;;;;;;;34.47;17.60;;;7.90;99.90;;;;;;5094438;28;20158;-66
2021/12/15 06:21:48;;;;;;;25.03;16.40;;;7.90;99.90;;;;;;5093118;28;20264;-66
2021/12/15 06:24:14;;;;;;;28.30;16.50;;;7.90;99.90;;;;;;5094598;28;20620;-66
2021/12/15 06:26:40;;;;;;;28.30;15.33;;;7.90;99.90;;;;;;5093337;28;20272;-66
2021/12/15 06:29:06;;;;;;;26.63;16.27;;;7.90;99.90;;;;;;5094832;28;20187;-66
2021/12/15 06:31:32;;;;;;;26.83;15.77;;;7.90;99.90;;;;;;5092896;28;20276;-66
2021/12/15 06:33:58;;;;;;;29.00;17.17;;;7.90;99.90;;;;;;5092729;28;20738;-66
2021/12/15 06:36:24;;;;;;;29.97;17.30;;;7.90;99.90;;;;;;5093957;28;20184;-66
2021/12/15 06:38:53;;;;;;;29.40;16.33;;;7.90;99.90;;;;;;5094082;28;20173;-66
2021/12/15 06:41:19;;;;;;;27.40;16.23;;;7.90;99.90;;;;;;5094363;28;20244;-66
2021/12/15 06:43:51;;;;;;;23.53;15.43;;;7.90;99.90;;;;;;5093798;28;20223;-66
2021/12/15 06:59:58;;;;;;;28.67;17.53;;;7.90;99.90;;;;;;5093954;28;20164;-66
2021/12/15 07:02:24;;;;;;;32.67;16.43;;;7.90;99.90;;;;;;5093632;28;20177;-66
2021/12/15 07:04:50;;;;;;;29.40;17.13;;;8.00;99.90;;;;;;5093544;28;20570;-66
2021/12/15 07:07:16;;;;;;;30.03;16.57;;;7.90;99.90;;;;;;5092365;28;20181;-66
2021/12/15 07:09:42;;;;;;;26.83;15.73;;;7.90;99.90;;;;;;5092309;28;20199;-66
2021/12/15 07:12:08;;;;;;;30.17;17.00;;;7.90;99.90;;;;;;5094342;28;20568;-66
2021/12/15 07:14:34;;;;;;;25.40;15.50;;;7.90;99.90;;;;;;5093315;28;20288;-66
2021/12/15 07:17:07;;;;;;;27.93;16.97;;;7.90;99.90;;;;;;5093573;28;20252;-66
2021/12/15 07:19:50;;;;;;;27.87;16.60;;;7.90;99.90;;;;;;5094028;28;20232;-65
2021/12/15 07:22:30;;;;;;;30.13;16.57;;;7.90;99.90;;;;;;5092503;28;20165;-65
2021/12/15 07:24:57;;;;;;;28.37;16.30;;;7.90;99.90;;;;;;5092407;28;20285;-66
2021/12/15 07:27:23;;;;;;;34.80;16.87;;;7.90;99.90;;;;;;5093966;28;20173;-66
2021/12/15 07:29:49;;;;;;;29.40;16.47;;;7.90;99.90;;;;;;5093367;28;20186;-66
2021/12/15 07:32:16;;;;;;;33.80;17.30;;;7.90;99.90;;;;;;5093353;28;20177;-66
2021/12/15 07:34:42;;;;;;;33.07;17.40;;;7.90;99.90;;;;;;5093162;28;20228;-66
2021/12/15 07:37:08;;;;;;;28.40;16.30;;;7.90;99.90;;;;;;5093281;28;20207;-66
2021/12/15 07:39:35;;;;;;;29.43;16.63;;;7.90;99.90;;;;;;5093210;28;20196;-66
2021/12/15 07:42:11;;;;;;;30.87;16.33;;;7.90;99.90;;;;;;5093211;28;20169;-66
2021/12/15 07:44:38;;;;;;;33.33;17.07;;;7.90;99.90;;;;;;5093226;28;20196;-66
2021/12/15 07:47:05;;;;;;;31.20;15.80;;;7.90;99.90;;;;;;5093114;28;20184;-66
2021/12/15 07:49:31;;;;;;;33.00;16.47;;;7.90;99.90;;;;;;5093677;28;20197;-66
2021/12/15 07:52:02;;;;;;;29.70;15.50;;;7.90;99.90;;;;;;5093157;28;20208;-66
2021/12/15 07:54:34;;;;;;;30.67;16.13;;;7.90;99.90;;;;;;5093284;28;20262;-66
2021/12/15 07:57:06;;;;;;;31.93;15.87;;;7.90;99.90;;;;;;5093390;28;20215;-66
2021/12/15 07:59:31;;;;;;;26.37;15.53;;;7.90;99.90;;;;;;5093334;28;20563;-66
2021/12/15 08:01:57;;;;;;;29.33;16.03;;;7.90;99.90;;;;;;5091752;28;20230;-66
2021/12/15 08:04:23;;;;;;;26.50;14.43;;;7.90;99.90;;;;;;5092953;28;20288;-66
2021/12/15 08:06:49;;;;;;;28.47;15.33;;;8.00;99.90;;;;;;5093007;28;20337;-66
2021/12/15 08:09:15;;;;;;;29.27;14.80;;;7.90;99.90;;;;;;5092945;28;20181;-66
2021/12/15 08:11:41;;;;;;;35.13;15.93;;;7.90;99.90;;;;;;5092975;28;20553;-66
2021/12/15 08:14:08;;;;;;;30.37;15.43;;;8.00;99.90;;;;;;5091528;28;20216;-66
2021/12/15 08:16:34;;;;;;;32.73;15.70;;;7.90;99.90;;;;;;5091717;28;20536;-66
2021/12/15 08:19:00;;;;;;;27.83;14.97;;;8.00;99.90;;;;;;5092892;28;20196;-66
2021/12/15 08:21:28;;;;;;;30.93;14.93;;;8.00;99.90;;;;;;5092912;28;20215;-66
2021/12/15 08:23:54;;;;;;;31.60;15.80;;;7.90;99.90;;;;;;5092781;28;20272;-67
2021/12/15 08:26:20;;;;;;;30.53;15.07;;;8.00;99.90;;;;;;5091582;28;20186;-67
2021/12/15 08:28:46;;;;;;;30.50;14.73;;;8.00;99.90;;;;;;5091555;28;20555;-66
2021/12/15 08:31:11;;;;;;;27.60;12.97;;;8.00;99.90;;;;;;5095987;28;20169;-66
2021/12/15 08:33:37;;;;;;;25.67;13.60;;;8.00;99.90;;;;;;5096158;28;20189;-66
2021/12/15 08:36:10;;;;;;;26.13;13.23;;;8.00;99.90;;;;;;5096368;28;20170;-66
2021/12/15 08:38:38;;;;;;;24.70;13.30;;;8.00;99.90;;;;;;5096594;28;20183;-66
2021/12/15 08:41:08;;;;;;;25.43;13.30;;;8.00;99.90;;;;;;5096686;28;20544;-67
2021/12/15 08:43:35;;;;;;;26.03;13.13;;;8.00;99.90;;;;;;5096147;28;20730;-66
2021/12/15 08:46:05;;;;;;;25.20;12.97;;;8.00;99.90;;;;;;5096153;28;20181;-66
2021/12/15 08:48:33;;;;;;;26.40;12.80;;;8.00;99.90;;;;;;5094852;28;20169;-66
2021/12/15 08:50:59;;;;;;;30.53;13.30;;;8.10;99.90;;;;;;5096274;28;20625;-66
2021/12/15 08:53:25;;;;;;;25.67;13.63;;;8.10;99.90;;;;;;5095801;28;20263;-66
2021/12/15 08:55:51;;;;;;;25.27;13.00;;;8.10;99.90;;;;;;5095860;28;20221;-66
2021/12/15 08:58:19;;;;;;;29.27;13.80;;;8.10;99.90;;;;;;5095860;28;20169;-66
2021/12/15 09:00:50;;;;;;;24.07;13.50;;;8.10;99.90;;;;;;5095850;28;20195;-66
2021/12/15 09:03:17;;;;;;;28.37;13.60;;;8.10;99.90;;;;;;5096242;28;20156;-66
2021/12/15 09:05:44;;;;;;;24.53;12.50;;;8.10;99.90;;;;;;5095799;28;20226;-66
2021/12/15 09:08:13;;;;;;;25.10;12.73;;;8.10;99.90;;;;;;5095597;28;20176;-66
2021/12/15 09:10:40;;;;;;;26.47;14.27;;;8.10;99.90;;;;;;5096004;28;20169;-66
2021/12/15 09:13:10;;;;;;;22.03;12.60;;;8.10;99.90;;;;;;5095578;28;20170;-66
2021/12/15 09:15:37;;;;;;;26.90;12.97;;;8.20;99.90;;;;;;5095518;28;20192;-66
2021/12/15 09:18:03;;;;;;;24.70;12.87;;;8.20;99.90;;;;;;5095585;28;20177;-66
2021/12/15 09:20:32;;;;;;;23.83;13.07;;;8.20;99.90;;;;;;5095761;28;20173;-66
2021/12/15 09:23:01;;;;;;;24.33;12.20;;;8.20;99.90;;;;;;5095691;28;20176;-65
2021/12/15 09:25:27;;;;;;;24.40;12.73;;;8.20;99.90;;;;;;5095413;28;20611;-65
2021/12/15 09:27:58;;;;;;;25.27;12.83;;;8.20;99.90;;;;;;5095917;28;20540;-65
2021/12/15 09:30:25;;;;;;;24.90;12.37;;;8.30;99.90;;;;;;5094053;28;20181;-65
2021/12/15 09:32:51;;;;;;;26.20;13.70;;;8.20;99.90;;;;;;5094005;28;20238;-65
2021/12/15 09:35:19;;;;;;;22.43;12.67;;;8.20;99.90;;;;;;5095069;28;20205;-65
2021/12/15 09:37:46;;;;;;;22.80;12.33;;;8.20;99.90;;;;;;5095388;28;20173;-65
2021/12/15 09:40:14;;;;;;;18.93;10.83;;;8.20;99.90;;;;;;5093352;28;20257;-65
2021/12/15 09:42:40;;;;;;;23.37;12.90;;;8.20;99.90;;;;;;5095228;28;20169;-65
2021/12/15 09:45:49;;;;;;;20.57;11.93;;;8.20;99.90;;;;;;5094908;28;20189;-65
2021/12/15 10:04:28;;;;;;;16.93;11.70;;;8.30;99.90;;;;;;5094628;28;20204;-65
2021/12/15 10:17:23;;;;;;;22.60;13.37;;;8.40;99.90;;;;;;5095065;28;20168;-65
2021/12/15 10:18:23;;;;;;;26.13;13.10;;;8.40;99.90;;;;;;5094493;28;20222;-67
2021/12/15 10:20:49;;;;;;;23.83;14.37;;;8.40;99.90;;;;;;5093141;28;20169;-67
2021/12/15 10:23:25;;;;;;;22.90;14.30;;;8.40;99.90;;;;;;5094204;28;20192;-67
2021/12/15 10:25:54;;;;;;;27.77;15.63;;;8.50;99.90;;;;;;5093031;28;20226;-67
2021/12/15 10:28:30;;;;;;;28.27;15.87;;;8.40;99.90;;;;;;5094776;28;20184;-67
2021/12/15 10:31:17;;;;;;;26.60;16.63;;;8.40;99.90;;;;;;5094379;28;20633;-67
2021/12/15 10:33:53;;;;;;;26.40;16.30;;;8.50;99.90;;;;;;5093993;28;20237;-67
2021/12/15 10:36:32;;;;;;;29.43;17.20;;;8.50;99.90;;;;;;5094121;28;20164;-67
2021/12/15 10:39:07;;;;;;;34.00;18.10;;;8.50;99.90;;;;;;5092704;28;20201;-67
2021/12/15 10:41:35;;;;;;;32.00;17.37;;;8.50;99.90;;;;;;5094537;28;20160;-67
2021/12/15 10:44:09;;;;;;;29.17;17.83;;;8.50;99.90;;;;;;5093844;28;20193;-67
2021/12/15 10:46:50;;;;;;;33.57;18.67;;;8.50;99.90;;;;;;5092664;28;20165;-67
2021/12/15 10:49:24;;;;;;;34.73;19.73;;;8.50;99.90;;;;;;5093927;28;20153;-67
2021/12/15 10:52:16;;;;;;;38.40;21.23;;;8.50;99.90;;;;;;5091935;28;20197;-67
2021/12/15 10:54:56;;;;;;;34.40;19.30;;;8.60;99.90;;;;;;5093610;28;20544;-67
2021/12/15 10:57:32;;;;;;;38.57;21.07;;;8.60;99.90;;;;;;5092568;28;20528;-67
2021/12/15 10:59:59;;;;;;;40.17;21.20;;;8.60;99.90;;;;;;5092421;28;20172;-67
2021/12/15 11:02:32;;;;;;;36.00;20.07;;;8.60;99.90;;;;;;5093663;28;20176;-67
2021/12/15 11:05:05;;;;;;;37.90;21.10;;;8.60;99.90;;;;;;5093934;28;20196;-67
2021/12/15 11:07:36;;;;;;;42.67;21.87;;;8.60;99.90;;;;;;5093167;28;20222;-67
2021/12/15 11:10:10;;;;;;;40.97;21.60;;;8.60;99.90;;;;;;5093813;28;20157;-67
2021/12/15 11:12:42;;;;;;;44.80;22.77;;;8.60;99.90;;;;;;5093580;28;20159;-67
2021/12/15 11:15:10;;;;;;;40.47;22.47;;;8.60;99.90;;;;;;5093348;28;20204;-67
2021/12/15 11:17:59;;;;;;;41.47;22.47;;;8.60;99.90;;;;;;5093447;28;20173;-67
2021/12/15 11:20:33;;;;;;;37.43;20.47;;;8.60;99.90;;;;;;5093758;28;20158;-67
2021/12/15 11:23:08;;;;;;;37.07;19.93;;;8.70;99.90;;;;;;5092097;28;20215;-67
2021/12/15 11:25:50;;;;;;;38.93;21.90;;;8.70;99.90;;;;;;5092154;28;20168;-67
2021/12/15 11:28:26;;;;;;;35.17;20.33;;;8.60;99.90;;;;;;5093697;28;20167;-67
2021/12/15 11:31:11;;;;;;;40.50;22.03;;;8.70;99.90;;;;;;5093877;28;20185;-67
2021/12/15 11:34:00;;;;;;;37.47;20.87;;;8.70;99.90;;;;;;5093232;28;20189;-67
2021/12/15 11:36:32;;;;;;;35.27;21.17;;;8.70;99.90;;;;;;5092046;28;20172;-67
2021/12/15 11:39:05;;;;;;;37.70;21.37;;;8.70;99.90;;;;;;5092050;28;20173;-67
2021/12/15 11:41:42;;;;;;;34.13;20.70;;;8.70;99.90;;;;;;5093590;28;20688;-67
2021/12/15 11:44:12;;;;;;;36.80;21.30;;;8.60;99.90;;;;;;5091899;28;20743;-67
2021/12/15 11:46:50;;;;;;;36.47;22.00;;;8.70;99.90;;;;;;5092237;28;20177;-67
2021/12/15 11:49:32;;;;;;;37.73;21.47;;;8.70;99.90;;;;;;5093627;28;20629;-68
2021/12/15 11:52:05;;;;;;;38.50;21.87;;;8.70;99.90;;;;;;5092158;28;20200;-68
2021/12/15 11:54:36;;;;;;;35.43;20.67;;;8.70;99.90;;;;;;5093588;28;20613;-65
2021/12/15 11:57:15;;;;;;;39.20;23.20;;;8.70;99.90;;;;;;5091885;28;20193;-65
2021/12/15 11:59:44;;;;;;;37.27;21.43;;;8.70;99.90;;;;;;5093514;28;20157;-65
2021/12/15 12:02:28;;;;;;;38.13;21.73;;;8.70;99.90;;;;;;5093145;28;20154;-65
2021/12/15 12:05:07;;;;;;;36.40;22.17;;;8.70;99.90;;;;;;5094732;28;20235;-65
2021/12/15 12:07:44;;;;;;;34.70;21.57;;;8.70;99.90;;;;;;5097025;28;20189;-65
2021/12/15 12:10:21;;;;;;;38.53;20.93;;;8.70;99.90;;;;;;5097441;28;20157;-65
2021/12/15 12:12:54;;;;;;;33.20;21.10;;;8.70;99.90;;;;;;5097100;28;20689;-64
2021/12/15 12:15:24;;;;;;;35.73;21.20;;;8.70;99.90;;;;;;5096903;28;20205;-64
2021/12/15 12:17:53;;;;;;;43.50;23.33;;;8.70;99.90;;;;;;5096668;28;20165;-65
2021/12/15 12:20:26;;;;;;;40.17;22.77;;;8.70;99.90;;;;;;5095475;28;20176;-65
2021/12/15 12:22:54;;;;;;;38.80;22.27;;;8.70;99.90;;;;;;5096572;28;20170;-65
2021/12/15 12:25:30;;;;;;;37.23;22.23;;;8.70;99.90;;;;;;5096461;28;20204;-64
2021/12/15 12:27:58;;;;;;;37.37;21.60;;;8.70;99.90;;;;;;5096585;28;20169;-64
2021/12/15 12:30:30;;;;;;;40.27;22.93;;;8.70;99.90;;;;;;5095159;28;20649;-65
2021/12/15 12:32:57;;;;;;;38.77;21.13;;;8.70;99.90;;;;;;5095181;28;20626;-65
2021/12/15 12:35:31;;;;;;;37.40;21.80;;;8.70;99.90;;;;;;5096192;28;20246;-64
2021/12/15 12:38:00;;;;;;;41.17;22.10;;;8.70;99.90;;;;;;5095092;28;20641;-65
2021/12/15 12:40:30;;;;;;;36.23;21.43;;;8.70;99.90;;;;;;5096283;28;20594;-63
2021/12/15 12:42:57;;;;;;;34.73;20.73;;;8.70;99.90;;;;;;5096271;28;20241;-63
2021/12/15 12:45:39;;;;;;;36.93;21.67;;;8.70;99.90;;;;;;5096369;28;20185;-64
2021/12/15 12:48:51;;;;;;;34.77;21.97;;;8.70;99.90;;;;;;5095215;28;20203;-63
2021/12/15 12:59:49;;;;;;;37.97;22.03;;;8.70;99.90;;;;;;5096482;28;20164;-64
2021/12/15 13:02:38;;;;;;;35.90;22.37;;;8.70;99.90;;;;;;5096258;28;20521;-64
2021/12/15 13:05:05;;;;;;;32.17;19.97;;;8.70;99.90;;;;;;5096131;28;20201;-67
2021/12/15 13:07:52;;;;;;;36.60;22.13;;;8.80;99.90;;;;;;5095908;28;20262;-64
2021/12/15 13:10:20;;;;;;;32.67;20.13;;;8.80;99.90;;;;;;5094483;28;20199;-67
2021/12/15 13:12:47;;;;;;;35.90;21.80;;;8.80;99.90;;;;;;5096065;28;20181;-68
2021/12/15 13:15:22;;;;;;;39.03;21.20;;;8.80;99.90;;;;;;5093825;28;20212;-67
2021/12/15 13:18:02;;;;;;;37.87;21.83;;;8.80;99.90;;;;;;5096219;28;20630;-67
2021/12/15 13:20:34;;;;;;;37.97;22.67;;;8.80;99.90;;;;;;5096329;28;20594;-68
2021/12/15 13:23:30;;;;;;;36.50;21.03;;;8.80;99.90;;;;;;5095513;28;20166;-66
2021/12/15 13:28:48;;;;;;;39.70;21.93;;;8.80;99.90;;;;;;5095777;28;20200;-66
2021/12/15 13:31:28;;;;;;;39.67;22.53;;;8.80;99.90;;;;;;5095860;28;20156;-66
2021/12/15 13:33:59;;;;;;;35.97;21.57;;;8.80;99.90;;;;;;5095670;28;20252;-66
2021/12/15 13:36:32;;;;;;;35.70;21.83;;;8.80;99.90;;;;;;5093918;28;20177;-65
2021/12/15 13:39:04;;;;;;;35.77;20.77;;;8.80;99.90;;;;;;5095478;28;20180;-65
2021/12/15 13:41:41;;;;;;;33.37;19.53;;;8.80;99.90;;;;;;5095417;28;20169;-65
2021/12/15 13:44:12;;;;;;;35.47;20.97;;;8.80;99.90;;;;;;5094980;28;20661;-65
2021/12/15 13:46:38;;;;;;;35.23;20.80;;;8.80;99.90;;;;;;5095069;28;20307;-65
2021/12/15 13:49:26;;;;;;;35.23;22.20;;;8.80;99.90;;;;;;5094946;28;20677;-65
2021/12/15 13:52:19;;;;;;;36.37;22.03;;;8.80;99.90;;;;;;5093540;28;20189;-65
2021/12/15 13:54:45;;;;;;;39.07;21.93;;;8.80;99.90;;;;;;5094836;28;20204;-65
2021/12/15 13:57:13;;;;;;;38.43;23.47;;;8.80;99.90;;;;;;5094891;28;20161;-65
2021/12/15 13:59:51;;;;;;;37.70;21.73;;;8.90;99.90;;;;;;5094785;28;20169;-65
2021/12/15 14:02:29;;;;;;;36.37;21.67;;;8.90;99.90;;;;;;5094929;28;20165;-64
2021/12/15 14:05:07;;;;;;;37.17;22.80;;;8.80;99.90;;;;;;5094790;28;20208;-64
2021/12/15 14:07:39;;;;;;;40.67;23.70;;;8.80;99.90;;;;;;5095275;28;20191;-64
2021/12/15 14:10:11;;;;;;;39.63;22.17;;;8.80;99.90;;;;;;5094551;28;20185;-64
2021/12/15 14:12:46;;;;;;;39.30;23.03;;;8.80;99.90;;;;;;5094554;28;20613;-64